Time,TemperatureF,DewpointF,PressureIn,WindDirection,WindDirectionDegrees,WindSpeedMPH,WindSpeedGustMPH,Humidity,HourlyPrecipIn,Conditions,Clouds,dailyrainin,SoftwareType,DateUTC
2013-05-17 00:00:00,70.6,67.0,29.95,SE,139,1.0,2.0,87,0.00,,,0.03,weatherlink.com 1.10,2013-05-17 05:00:00,
2013-05-17 00:30:00,70.5,67.0,29.96,SSE,162,0.0,3.0,89,0.00,,,0.00,weatherlink.com 1.10,2013-05-17 05:30:00,
2013-05-17 00:45:00,70.6,67.0,29.96,SSE,160,1.0,2.0,89,0.00,,,0.00,weatherlink.com 1.10,2013-05-17 05:45:00,
2013-05-17 01:00:00,70.7,67.0,29.96,South,172,0.0,1.0,89,0.00,,,0.00,weatherlink.com 1.10,2013-05-17 06:00:00,
2013-05-17 01:15:00,70.7,68.0,29.96,South,169,1.0,3.0,90,0.00,,,0.00,weatherlink.com 1.10,2013-05-17 06:15:00,
2013-05-17 01:30:00,70.4,68.0,29.96,SSE,166,1.0,3.0,91,0.00,,,0.00,weatherlink.com 1.10,2013-05-17 06:30:00,
2013-05-17 01:45:00,70.1,68.0,29.96,SSE,150,2.0,2.0,92,0.00,,,0.00,weatherlink.com 1.10,2013-05-17 06:45:00,
2013-05-17 02:00:00,70.2,68.0,29.96,SE,146,1.0,3.0,92,0.00,,,0.00,weatherlink.com 1.10,2013-05-17 07:00:00,
2013-05-17 02:15:00,70.2,68.0,29.96,SE,135,1.0,2.0,92,0.00,,,0.00,weatherlink.com 1.10,2013-05-17 07:15:00,
2013-05-17 02:30:00,70.1,68.0,29.95,South,184,2.0,3.0,93,0.00,,,0.00,weatherlink.com 1.10,2013-05-17 07:30:00,
2013-05-17 02:45:00,70.1,68.0,29.95,SSW,203,1.0,3.0,93,0.00,,,0.00,weatherlink.com 1.10,2013-05-17 07:45:00,
2013-05-17 03:00:00,70.1,68.0,29.95,SSE,152,3.0,3.0,93,0.00,,,0.00,weatherlink.com 1.10,2013-05-17 08:00:00,
2013-05-17 03:15:00,70.1,68.0,29.94,SSE,160,1.0,2.0,93,0.00,,,0.00,weatherlink.com 1.10,2013-05-17 08:15:00,
2013-05-17 03:30:00,70.1,68.0,29.95,SW,223,1.0,3.0,93,0.00,,,0.00,weatherlink.com 1.10,2013-05-17 08:30:00,
2013-05-17 03:45:00,70.1,68.0,29.95,SSE,163,1.0,2.0,94,0.00,,,0.00,weatherlink.com 1.10,2013-05-17 08:45:00,
2013-05-17 04:00:00,70.2,69.0,29.95,SSE,157,1.0,2.0,94,0.00,,,0.00,weatherlink.com 1.10,2013-05-17 09:00:00,
2013-05-17 04:15:00,70.3,69.0,29.95,South,174,2.0,2.0,94,0.00,,,0.00,weatherlink.com 1.10,2013-05-17 09:15:00,
2013-05-17 04:30:00,70.5,68.0,29.95,South,172,0.0,2.0,93,0.00,,,0.00,weatherlink.com 1.10,2013-05-17 09:30:00,
2013-05-17 04:45:00,70.6,69.0,29.96,SSW,208,1.0,4.0,93,0.00,,,0.00,weatherlink.com 1.10,2013-05-17 09:45:00,
2013-05-17 05:00:00,70.7,69.0,29.96,SW,222,1.0,3.0,93,0.00,,,0.00,weatherlink.com 1.10,2013-05-17 10:00:00,
2013-05-17 05:15:00,70.8,69.0,29.97,SSE,152,0.0,3.0,93,0.00,,,0.00,weatherlink.com 1.10,2013-05-17 10:15:00,
2013-05-17 05:30:00,71.0,69.0,29.97,SSE,162,3.0,4.0,93,0.00,,,0.00,weatherlink.com 1.10,2013-05-17 10:30:00,
2013-05-17 05:45:00,71.1,69.0,29.97,SSW,205,2.0,5.0,93,0.00,,,0.00,weatherlink.com 1.10,2013-05-17 10:45:00,
2013-05-17 06:00:00,71.1,69.0,29.97,South,174,2.0,4.0,92,0.00,,,0.00,weatherlink.com 1.10,2013-05-17 11:00:00,
2013-05-17 06:15:00,71.1,69.0,29.97,SSE,166,3.0,4.0,92,0.00,,,0.00,weatherlink.com 1.10,2013-05-17 11:15:00,
2013-05-17 06:30:00,71.0,69.0,29.97,South,184,2.0,3.0,93,0.00,,,0.00,weatherlink.com 1.10,2013-05-17 11:30:00,
2013-05-17 06:45:00,71.0,69.0,29.97,SSE,153,2.0,3.0,93,0.00,,,0.00,weatherlink.com 1.10,2013-05-17 11:45:00,
2013-05-17 07:00:00,71.2,69.0,29.98,South,172,3.0,4.0,93,0.00,,,0.00,weatherlink.com 1.10,2013-05-17 12:00:00,
2013-05-17 07:15:00,71.6,69.0,29.98,SSE,162,0.0,3.0,92,0.00,,,0.00,weatherlink.com 1.10,2013-05-17 12:15:00,
2013-05-17 07:31:00,71.9,69.0,29.99,ESE,121,1.0,4.0,91,0.00,,,0.00,weatherlink.com 1.10,2013-05-17 12:31:00,
2013-05-17 07:46:00,72.3,69.0,29.99,SW,233,2.0,5.0,90,0.00,,,0.00,weatherlink.com 1.10,2013-05-17 12:46:00,
2013-05-17 08:01:00,72.7,70.0,29.99,South,190,5.0,6.0,90,0.00,,,0.00,weatherlink.com 1.10,2013-05-17 13:01:00,
2013-05-17 08:16:00,73.3,70.0,30.00,SSW,200,1.0,4.0,88,0.00,,,0.00,weatherlink.com 1.10,2013-05-17 13:16:00,
2013-05-17 08:31:00,74.0,70.0,30.00,South,179,3.0,5.0,87,0.00,,,0.00,weatherlink.com 1.10,2013-05-17 13:31:00,
2013-05-17 08:46:00,74.7,70.0,30.01,South,180,1.0,5.0,86,0.00,,,0.00,weatherlink.com 1.10,2013-05-17 13:46:00,
2013-05-17 09:01:00,74.8,70.0,30.01,SSE,165,1.0,3.0,86,0.00,,,0.00,weatherlink.com 1.10,2013-05-17 14:01:00,
2013-05-17 09:16:00,75.2,70.0,30.02,West,266,1.0,5.0,84,0.00,,,0.00,weatherlink.com 1.10,2013-05-17 14:16:00,
2013-05-17 09:31:00,75.7,70.0,30.02,SSE,152,2.0,4.0,83,0.00,,,0.00,weatherlink.com 1.10,2013-05-17 14:31:00,
2013-05-17 09:46:00,76.2,70.0,30.02,South,184,2.0,4.0,82,0.00,,,0.00,weatherlink.com 1.10,2013-05-17 14:46:00,
2013-05-17 10:01:00,76.5,70.0,30.02,SSE,158,3.0,7.0,80,0.00,,,0.00,weatherlink.com 1.10,2013-05-17 15:01:00,
2013-05-17 10:16:00,76.9,70.0,30.01,SSE,155,2.0,6.0,79,0.00,,,0.00,weatherlink.com 1.10,2013-05-17 15:16:00,
2013-05-17 10:31:00,77.0,70.0,30.01,SSW,194,3.0,6.0,79,0.00,,,0.00,weatherlink.com 1.10,2013-05-17 15:31:00,
2013-05-17 10:46:00,77.4,70.0,30.02,WSW,251,1.0,5.0,78,0.00,,,0.00,weatherlink.com 1.10,2013-05-17 15:46:00,
2013-05-17 11:01:00,78.0,70.0,30.02,SSW,208,3.0,7.0,76,0.00,,,0.00,weatherlink.com 1.10,2013-05-17 16:01:00,
2013-05-17 11:16:00,79.1,70.0,30.02,SSE,165,3.0,5.0,74,0.00,,,0.00,weatherlink.com 1.10,2013-05-17 16:16:00,
2013-05-17 11:31:00,79.8,70.0,30.02,WSW,252,1.0,5.0,73,0.00,,,0.00,weatherlink.com 1.10,2013-05-17 16:31:00,
2013-05-17 11:46:00,79.1,70.0,30.02,South,186,1.0,6.0,73,0.00,,,0.00,weatherlink.com 1.10,2013-05-17 16:46:00,
2013-05-17 12:01:00,80.0,71.0,30.01,WSW,247,2.0,6.0,74,0.00,,,0.00,weatherlink.com 1.10,2013-05-17 17:01:00,
2013-05-17 12:16:00,80.6,71.0,30.02,West,275,1.0,7.0,72,0.00,,,0.00,weatherlink.com 1.10,2013-05-17 17:16:00,
2013-05-17 12:31:00,81.2,71.0,30.01,South,183,2.0,6.0,71,0.00,,,0.00,weatherlink.com 1.10,2013-05-17 17:31:00,
2013-05-17 12:47:00,82.4,71.0,30.00,SSE,153,2.0,7.0,69,0.00,,,0.00,weatherlink.com 1.10,2013-05-17 17:47:00,
2013-05-17 13:02:00,83.3,71.0,30.00,South,174,3.0,7.0,66,0.00,,,0.00,weatherlink.com 1.10,2013-05-17 18:02:00,
2013-05-17 13:17:00,84.1,72.0,30.00,ESE,112,1.0,6.0,66,0.00,,,0.00,weatherlink.com 1.10,2013-05-17 18:17:00,
2013-05-17 13:32:00,83.7,72.0,30.00,SE,146,2.0,7.0,68,0.00,,,0.00,weatherlink.com 1.10,2013-05-17 18:32:00,
2013-05-17 13:47:00,83.5,71.0,30.00,SSW,205,2.0,5.0,67,0.00,,,0.00,weatherlink.com 1.10,2013-05-17 18:47:00,
2013-05-17 14:02:00,83.8,71.0,29.99,West,266,0.0,3.0,66,0.00,,,0.00,weatherlink.com 1.10,2013-05-17 19:02:00,
2013-05-17 14:17:00,84.3,71.0,29.99,West,262,4.0,5.0,65,0.00,,,0.00,weatherlink.com 1.10,2013-05-17 19:17:00,
2013-05-17 14:32:00,84.0,71.0,29.99,South,183,1.0,5.0,66,0.00,,,0.00,weatherlink.com 1.10,2013-05-17 19:32:00,
2013-05-17 14:47:00,83.7,71.0,29.98,SSE,165,0.0,3.0,66,0.00,,,0.00,weatherlink.com 1.10,2013-05-17 19:47:00,
2013-05-17 15:02:00,83.2,72.0,29.98,SSE,155,2.0,5.0,69,0.00,,,0.00,weatherlink.com 1.10,2013-05-17 20:02:00,
2013-05-17 15:17:00,84.1,72.0,29.97,WNW,285,1.0,6.0,66,0.00,,,0.00,weatherlink.com 1.10,2013-05-17 20:17:00,
2013-05-17 15:32:00,85.8,73.0,29.97,WSW,251,0.0,3.0,65,0.00,,,0.00,weatherlink.com 1.10,2013-05-17 20:32:00,
2013-05-17 15:47:00,84.8,71.0,29.96,South,170,2.0,5.0,64,0.00,,,0.00,weatherlink.com 1.10,2013-05-17 20:47:00,
2013-05-17 16:02:00,85.8,72.0,29.95,SSE,148,1.0,5.0,64,0.00,,,0.00,weatherlink.com 1.10,2013-05-17 21:02:00,
2013-05-17 16:17:00,85.5,73.0,29.95,SSW,198,0.0,4.0,66,0.00,,,0.00,weatherlink.com 1.10,2013-05-17 21:17:00,
2013-05-17 16:32:00,85.3,72.0,29.95,SSW,207,2.0,5.0,64,0.00,,,0.00,weatherlink.com 1.10,2013-05-17 21:32:00,
2013-05-17 16:47:00,84.3,72.0,29.94,SSE,149,3.0,6.0,66,0.00,,,0.00,weatherlink.com 1.10,2013-05-17 21:47:00,
2013-05-17 17:02:00,84.4,72.0,29.94,South,187,2.0,4.0,66,0.00,,,0.00,weatherlink.com 1.10,2013-05-17 22:02:00,
2013-05-17 17:17:00,84.5,72.0,29.94,SW,224,5.0,5.0,66,0.00,,,0.00,weatherlink.com 1.10,2013-05-17 22:17:00,
2013-05-17 17:32:00,83.8,72.0,29.94,SE,145,2.0,5.0,68,0.00,,,0.00,weatherlink.com 1.10,2013-05-17 22:32:00,
2013-05-17 17:47:00,83.4,72.0,29.94,SSW,212,1.0,5.0,69,0.00,,,0.00,weatherlink.com 1.10,2013-05-17 22:47:00,
2013-05-17 18:02:00,83.2,72.0,29.94,SSE,160,2.0,6.0,68,0.00,,,0.00,weatherlink.com 1.10,2013-05-17 23:02:00,
2013-05-17 18:17:00,82.9,71.0,29.94,South,172,3.0,5.0,68,0.00,,,0.00,weatherlink.com 1.10,2013-05-17 23:17:00,
2013-05-17 18:32:00,82.5,72.0,29.95,SSE,152,2.0,2.0,70,0.00,,,0.00,weatherlink.com 1.10,2013-05-17 23:32:00,
2013-05-17 18:47:00,81.9,71.0,29.95,South,172,1.0,4.0,70,0.00,,,0.00,weatherlink.com 1.10,2013-05-17 23:47:00,
2013-05-17 19:02:00,81.6,72.0,29.95,SE,139,2.0,3.0,72,0.00,,,0.00,weatherlink.com 1.10,2013-05-18 00:02:00,
2013-05-17 19:17:00,80.7,72.0,29.95,SSE,150,1.0,3.0,75,0.00,,,0.00,weatherlink.com 1.10,2013-05-18 00:17:00,
2013-05-17 19:32:00,79.9,72.0,29.95,SSE,153,1.0,3.0,76,0.00,,,0.00,weatherlink.com 1.10,2013-05-18 00:32:00,
2013-05-17 19:47:00,79.3,72.0,29.96,SSE,152,2.0,4.0,77,0.00,,,0.00,weatherlink.com 1.10,2013-05-18 00:47:00,
2013-05-17 20:02:00,78.7,71.0,29.96,SSE,165,2.0,3.0,78,0.00,,,0.00,weatherlink.com 1.10,2013-05-18 01:02:00,
2013-05-17 20:17:00,78.2,71.0,29.96,SSE,158,1.0,3.0,78,0.00,,,0.00,weatherlink.com 1.10,2013-05-18 01:17:00,
2013-05-17 20:32:00,77.8,71.0,29.96,SSE,158,2.0,4.0,79,0.00,,,0.00,weatherlink.com 1.10,2013-05-18 01:32:00,
2013-05-17 20:47:00,77.2,71.0,29.97,SSE,154,2.0,5.0,80,0.00,,,0.00,weatherlink.com 1.10,2013-05-18 01:47:00,
2013-05-17 21:02:00,76.7,71.0,29.96,SSE,166,1.0,3.0,81,0.00,,,0.00,weatherlink.com 1.10,2013-05-18 02:02:00,
2013-05-17 21:17:00,76.4,70.0,29.97,SSE,152,1.0,3.0,81,0.00,,,0.00,weatherlink.com 1.10,2013-05-18 02:17:00,
2013-05-17 21:32:00,76.1,70.0,29.98,SE,134,1.0,3.0,82,0.00,,,0.00,weatherlink.com 1.10,2013-05-18 02:32:00,
2013-05-17 21:47:00,75.9,70.0,29.98,SSE,152,0.0,3.0,82,0.00,,,0.00,weatherlink.com 1.10,2013-05-18 02:47:00,
2013-05-17 22:02:00,75.5,70.0,29.99,SSE,147,1.0,2.0,83,0.00,,,0.00,weatherlink.com 1.10,2013-05-18 03:02:00,
2013-05-17 22:17:00,75.2,70.0,29.99,SSE,155,2.0,2.0,84,0.00,,,0.00,weatherlink.com 1.10,2013-05-18 03:17:00,
2013-05-17 22:32:00,74.9,70.0,30.00,SSE,162,1.0,3.0,84,0.00,,,0.00,weatherlink.com 1.10,2013-05-18 03:32:00,
2013-05-17 22:47:00,74.8,70.0,30.00,SSE,167,1.0,3.0,85,0.00,,,0.00,weatherlink.com 1.10,2013-05-18 03:47:00,
2013-05-17 23:02:00,74.7,70.0,30.01,SSE,152,2.0,3.0,85,0.00,,,0.00,weatherlink.com 1.10,2013-05-18 04:02:00,
2013-05-17 23:17:00,74.6,70.0,30.01,South,177,3.0,3.0,85,0.00,,,0.00,weatherlink.com 1.10,2013-05-18 04:17:00,
2013-05-17 23:32:00,74.3,70.0,30.01,SSE,158,2.0,3.0,86,0.00,,,0.00,weatherlink.com 1.10,2013-05-18 04:32:00,
2013-05-17 23:47:00,74.2,70.0,30.01,SSE,152,1.0,5.0,87,0.00,,,0.00,weatherlink.com 1.10,2013-05-18 04:47:00,